ADDS METAR Data INFO
IDs: Format: Raw Decoded Include TAF

Data at: 2157 UTC 16 Oct 2017

KLND 162153Z AUTO 13004KT 10SM CLR 19/M07 A3022 RMK AO2 SLP204 T01891067
KLND 162053Z AUTO 00000KT 10SM CLR 18/M08 A3023 RMK AO2 SLP203 T01831083 58013
KLND 161953Z AUTO 00000KT 10SM CLR 18/M09 A3024 RMK AO2 SLP207 T01781094
KLND 161853Z AUTO 00000KT 10SM CLR 16/M04 A3027 RMK AO2 SLP228 T01561044
KLND 161753Z AUTO 01005KT 10SM CLR 12/02 A3027 RMK AO2 SLP232 T01220022 10150 20028 57004
KLND 161653Z AUTO 00000KT 10SM CLR 11/01 A3027 RMK AO2 SLP233 T01110006
KLND 161553Z AUTO 14004KT 10SM CLR 08/M02 A3028 RMK AO2 SLP245 T00781022
KLND 161453Z AUTO 25003KT 10SM CLR 07/M03 A3028 RMK AO2 SLP244 T00671028 53003
KLND 161353Z AUTO 00000KT 10SM CLR 04/M03 A3027 RMK AO2 SLP240 T00441028
KLND 161253Z AUTO 00000KT 10SM CLR 03/M03 A3027 RMK AO2 SLP242 T00331028
KLND 161153Z AUTO 25003KT 10SM CLR 04/M03 A3027 RMK AO2 SLP235 T00391028 10061 20022 56003
KLND 161053Z AUTO 00000KT 10SM CLR 04/M02 A3028 RMK AO2 SLP234 T00391022
KLND 160953Z AUTO 22003KT 10SM CLR 03/M02 A3028 RMK AO2 SLP233 T00331022
KLND 160853Z AUTO 26003KT 10SM CLR 05/M02 A3028 RMK AO2 SLP236 T00501022 56010
KLND 160753Z AUTO 00000KT 10SM CLR 06/M02 A3030 RMK AO2 SLP241 T00561022
KLND 160653Z AUTO 15003KT 10SM CLR 03/M02 A3030 RMK AO2 SLP252 T00281022 401441056
KLND 160553Z AUTO 29003KT 10SM CLR 05/M02 A3032 RMK AO2 SLP255 T00501017 10122 20044 58003
KLND 160453Z AUTO 00000KT 10SM CLR 07/M02 A3033 RMK AO2 SLP262 T00671022
KLND 160353Z AUTO 35005KT 10SM CLR 06/M01 A3033 RMK AO2 SLP271 T00561011
KLND 160253Z AUTO 00000KT 10SM CLR 07/M02 A3033 RMK AO2 SLP274 T00721022 58001
KLND 160153Z AUTO 22004KT 10SM CLR 09/M03 A3034 RMK AO2 SLP279 T00941028
KLND 160053Z AUTO 24007KT 10SM CLR 09/M01 A3033 RMK AO2 SLP278 T00941006
KLND 152353Z AUTO 00000KT 10SM CLR 12/00 A3033 RMK AO2 SLP276 T01220000 10144 20083 56009
KLND 152253Z AUTO 15006KT 10SM CLR 14/M02 A3034 RMK AO2 SLP270 T01391022
KLND 152153Z AUTO 18005KT 10SM CLR 14/M03 A3036 RMK AO2 SLP274 T01391028
KLND 152053Z AUTO VRB04KT 10SM CLR 13/M03 A3036 RMK AO2 SLP279 T01281028 58018
KLND 151953Z AUTO VRB04KT 10SM CLR 12/M03 A3039 RMK AO2 SLP292 T01221033
KLND 151853Z AUTO 00000KT 10SM CLR 11/M03 A3041 RMK AO2 SLP303 T01061033
KLND 151753Z AUTO 00000KT 10SM CLR 09/M02 A3043 RMK AO2 SLP307 T00891022 10089 21044 58001
KLND 151653Z AUTO 00000KT 10SM CLR 06/M04 A3044 RMK AO2 SLP318 T00611039
KLND 151553Z AUTO 28004KT 10SM CLR 04/M04 A3044 RMK AO2 SLP323 T00391039
KLND 151453Z AUTO 30006KT 10SM CLR 01/M06 A3043 RMK AO2 SLP327 T00061056 53017
KLND 151353Z AUTO 34004KT 10SM CLR M03/M07 A3041 RMK AO2 SLP326 T10281067
KLND 151253Z AUTO 12006KT 10SM CLR M03/M07 A3039 RMK AO2 SLP314 T10281067
KLND 151153Z AUTO 11004KT 10SM CLR M05/M07 A3037 RMK AO2 SLP307 70035 T10501072 10006 21056 51007
KLND 151053Z AUTO 20004KT 10SM CLR M03/M06 A3037 RMK AO2 SLP304 T10281061